Aviation Digital Data Service (ADDS)

Output produced by METARs form (0749 UTC 18 September 2021)
found at http://www.aviationweather.gov/metar/data/
 
Forecast for: UTDT (QURGHONTEPPA , TJ)
Text: TAF UTDT 180600Z 1807/1816 VRB02MPS 9999 NSC
Forecast period: 0700 to 1600 UTC 18 September 2021
Forecast type: FROM: standard forecast or significant change
Winds: variable direction winds at 5 MPH (4 knots; 2.1 m/s)
Visibility: 6 or more miles (10+ km)
Ceiling: unknown
Clouds: missing
Weather: no significant weather forecast for this period